^^
Paulen-Weather Station Historical Data
Daily Summary for July 04, 2022 Units:  Metric    English   Both
Daily Weekly Monthly Yearly Custom
  High: Low: Average:
Temperature: 15 °C 13 °C 13.7 °C
Dew Point: 13 °C 12 °C 12.5 °C
Humidity: 94% 88% 92%
Wind Speed: 9km/h 0km/h 3km/h
Wind Gust: 10km/h - -
Wind- - WSW
Pressure: 1013.44 hPa 1011.41 hPa -
Precipitation: 0 mm    
Historical Graphs
 
 
Tabular Data for July 04, 2022
Time Temperature Dew Point Pressure Wind Wind Speed Wind Gust Humidity Rainfall Rate (Hourly) solar
00:04 15 °C 13 °C 1013.41 hPa WSW 6 km/h 5 km/h 89% 0 mm 0 W/m2
00:09 15 °C 13 °C 1013.44 hPa WSW 5 km/h 3 km/h 89% 0 mm 0 W/m2
00:14 15 °C 13 °C 1013.41 hPa SW 4 km/h 3 km/h 89% 0 mm 0 W/m2
00:19 15 °C 13 °C 1013.38 hPa W 5 km/h 5 km/h 89% 0 mm 0 W/m2
00:24 15 °C 13 °C 1013.41 hPa WSW 3 km/h 2 km/h 90% 0 mm 0 W/m2
00:29 15 °C 13 °C 1013.41 hPa W 3 km/h 5 km/h 90% 0 mm 0 W/m2
00:34 15 °C 13 °C 1013.38 hPa WSW 2 km/h 2 km/h 90% 0 mm 0 W/m2
00:39 14 °C 13 °C 1013.24 hPa SW 3 km/h 2 km/h 90% 0 mm 0 W/m2
00:44 14 °C 13 °C 1013.28 hPa WSW 3 km/h 4 km/h 90% 0 mm 0 W/m2
00:49 14 °C 13 °C 1013.31 hPa SW 3 km/h 4 km/h 91% 0 mm 0 W/m2
00:54 14 °C 13 °C 1013.28 hPa SW 1 km/h 1 km/h 91% 0 mm 0 W/m2
00:59 14 °C 13 °C 1013.31 hPa SW 3 km/h 3 km/h 91% 0 mm 0 W/m2
01:04 14 °C 13 °C 1013.28 hPa SW 3 km/h 2 km/h 91% 0 mm 0 W/m2
01:09 14 °C 13 °C 1013.31 hPa WSW 1 km/h 1 km/h 91% 0 mm 0 W/m2
01:14 14 °C 13 °C 1013.31 hPa SW 2 km/h 2 km/h 91% 0 mm 0 W/m2
01:19 14 °C 13 °C 1013.34 hPa SW 3 km/h 2 km/h 92% 0 mm 0 W/m2
01:24 14 °C 13 °C 1013.28 hPa SW 3 km/h 2 km/h 92% 0 mm 0 W/m2
01:29 14 °C 13 °C 1013.28 hPa WSW 3 km/h 2 km/h 92% 0 mm 0 W/m2
01:34 14 °C 13 °C 1013.28 hPa WSW 3 km/h 2 km/h 92% 0 mm 0 W/m2
01:39 14 °C 13 °C 1013.24 hPa WSW 1 km/h 1 km/h 92% 0 mm 0 W/m2
01:44 14 °C 13 °C 1013.28 hPa WSW 2 km/h 2 km/h 92% 0 mm 0 W/m2
01:49 14 °C 13 °C 1013.17 hPa W 1 km/h   92% 0 mm 0 W/m2
01:54 14 °C 12 °C 1013.14 hPa Calm     92% 0 mm 0 W/m2
01:59 14 °C 12 °C 1013.07 hPa Calm     92% 0 mm 0 W/m2
02:04 14 °C 12 °C 1012.97 hPa WSW 3 km/h 1 km/h 92% 0 mm 0 W/m2
02:09 13 °C 12 °C 1012.87 hPa W 3 km/h 2 km/h 92% 0 mm 0 W/m2
02:14 13 °C 12 °C 1012.8 hPa W 4 km/h 2 km/h 93% 0 mm 0 W/m2
02:19 13 °C 12 °C 1012.73 hPa W 4 km/h 3 km/h 93% 0 mm 0 W/m2
02:24 13 °C 12 °C 1012.7 hPa W 5 km/h 3 km/h 93% 0 mm 0 W/m2
02:29 13 °C 12 °C 1012.67 hPa W 4 km/h 3 km/h 93% 0 mm 0 W/m2
02:34 13 °C 12 °C 1012.6 hPa WNW 6 km/h 4 km/h 93% 0 mm 0 W/m2
02:39 13 °C 12 °C 1012.56 hPa W 6 km/h 5 km/h 93% 0 mm 0 W/m2
02:44 13 °C 12 °C 1012.56 hPa WNW 6 km/h 6 km/h 93% 0 mm 0 W/m2
02:49 13 °C 12 °C 1012.56 hPa W 5 km/h 4 km/h 93% 0 mm 0 W/m2
02:54 13 °C 12 °C 1012.56 hPa W 3 km/h 2 km/h 93% 0 mm 0 W/m2
02:59 13 °C 12 °C 1012.53 hPa W 3 km/h 2 km/h 93% 0 mm 0 W/m2
03:04 13 °C 12 °C 1012.43 hPa W 3 km/h 4 km/h 93% 0 mm 0 W/m2
03:09 13 °C 12 °C 1012.39 hPa WNW 6 km/h 4 km/h 93% 0 mm 0 W/m2
03:14 13 °C 12 °C 1012.43 hPa W 3 km/h 2 km/h 93% 0 mm 0 W/m2
03:19 13 °C 12 °C 1012.39 hPa WNW 3 km/h 3 km/h 93% 0 mm 0 W/m2
03:24 13 °C 12 °C 1012.39 hPa NW 4 km/h 4 km/h 93% 0 mm 0 W/m2
03:29 13 °C 12 °C 1012.33 hPa NW 5 km/h 4 km/h 92% 0 mm 0 W/m2
03:34 13 °C 12 °C 1012.29 hPa WNW 4 km/h 3 km/h 92% 0 mm 0 W/m2
03:39 13 °C 12 °C 1012.26 hPa WNW 4 km/h 3 km/h 92% 0 mm 0 W/m2
03:44 13 °C 12 °C 1012.23 hPa WNW 2 km/h 1 km/h 92% 0 mm 0 W/m2
03:49 13 °C 12 °C 1012.19 hPa WNW 2 km/h 2 km/h 93% 0 mm 0 W/m2
03:54 13 °C 12 °C 1012.23 hPa W 3 km/h 2 km/h 93% 0 mm 0 W/m2
03:59 13 °C 12 °C 1012.16 hPa W 1 km/h 1 km/h 93% 0 mm 0 W/m2
04:04 13 °C 12 °C 1012.12 hPa Calm     93% 0 mm 0 W/m2
04:09 13 °C 12 °C 1012.02 hPa Calm     93% 0 mm 0 W/m2
04:14 13 °C 12 °C 1011.95 hPa WSW 2 km/h 2 km/h 93% 0 mm 0 W/m2
04:19 13 °C 12 °C 1011.95 hPa WSW 3 km/h 2 km/h 93% 0 mm 0 W/m2
04:24 13 °C 12 °C 1011.92 hPa WSW 4 km/h 4 km/h 93% 0 mm 0 W/m2
04:29 13 °C 12 °C 1011.85 hPa W 3 km/h 2 km/h 93% 0 mm 0 W/m2
04:34 13 °C 12 °C 1011.85 hPa WSW 3 km/h 2 km/h 93% 0 mm 5 W/m2
04:39 13 °C 12 °C 1011.82 hPa WSW 2 km/h 2 km/h 93% 0 mm 7 W/m2
04:44 13 °C 12 °C 1011.82 hPa SSW 4 km/h 3 km/h 93% 0 mm 9 W/m2
04:49 13 °C 12 °C 1011.75 hPa SW 4 km/h 3 km/h 93% 0 mm 9 W/m2
04:54 13 °C 12 °C 1011.75 hPa SW 4 km/h 3 km/h 93% 0 mm 11 W/m2
04:59 13 °C 12 °C 1011.79 hPa SW 5 km/h 3 km/h 93% 0 mm 12 W/m2
05:04 13 °C 12 °C 1011.79 hPa SW 3 km/h 3 km/h 94% 0 mm 14 W/m2
05:09 13 °C 12 °C 1011.79 hPa WSW 3 km/h 2 km/h 94% 0 mm 33 W/m2
05:14 13 °C 12 °C 1011.82 hPa WSW 2 km/h 2 km/h 94% 0 mm 33 W/m2
05:19 13 °C 12 °C 1011.89 hPa Calm     94% 0 mm 51 W/m2
05:24 13 °C 12 °C 1011.92 hPa Calm     94% 0 mm 51 W/m2
05:29 13 °C 12 °C 1011.85 hPa Calm     94% 0 mm 28 W/m2
05:34 13 °C 12 °C 1011.85 hPa Calm     94% 0 mm 72 W/m2
05:39 13 °C 12 °C 1011.79 hPa WSW 2 km/h 2 km/h 94% 0 mm 81 W/m2
05:44 13 °C 12 °C 1011.79 hPa WSW 3 km/h 2 km/h 94% 0 mm 84 W/m2
05:49 14 °C 13 °C 1011.75 hPa W 1 km/h 1 km/h 94% 0 mm 86 W/m2
05:54 14 °C 13 °C 1011.82 hPa WSW 3 km/h 2 km/h 94% 0 mm 91 W/m2
05:59 14 °C 13 °C 1011.75 hPa Calm     94% 0 mm 111 W/m2
06:04 14 °C 13 °C 1011.75 hPa WSW 1 km/h   94% 0 mm 141 W/m2
06:09 14 °C 13 °C 1011.79 hPa WSW 2 km/h 1 km/h 93% 0 mm 172 W/m2
06:14 14 °C 13 °C 1011.75 hPa SW 1 km/h 1 km/h 93% 0 mm 172 W/m2
06:19 14 °C 13 °C 1011.75 hPa Calm   1 km/h 92% 0 mm 86 W/m2
06:24 14 °C 13 °C 1011.68 hPa SW 1 km/h 1 km/h 92% 0 mm 148 W/m2
06:29 14 °C 13 °C 1011.68 hPa Calm     92% 0 mm 151 W/m2
06:34 14 °C 13 °C 1011.65 hPa SW 1 km/h 1 km/h 92% 0 mm 165 W/m2
06:39 15 °C 13 °C 1011.62 hPa WNW 2 km/h 1 km/h 91% 0 mm 176 W/m2
06:44 15 °C 13 °C 1011.55 hPa SSW 4 km/h 3 km/h 90% 0 mm 188 W/m2
06:49 15 °C 13 °C 1011.48 hPa SW 4 km/h 4 km/h 90% 0 mm 206 W/m2
06:54 15 °C 13 °C 1011.51 hPa SSW 7 km/h 5 km/h 89% 0 mm 255 W/m2
06:59 15 °C 13 °C 1011.51 hPa SW 7 km/h 8 km/h 89% 0 mm 311 W/m2
07:04 15 °C 13 °C 1011.45 hPa W 6 km/h 4 km/h 89% 0 mm 369 W/m2
07:09 15 °C 13 °C 1011.41 hPa WSW 9 km/h 10 km/h 88% 0 mm 306 W/m2
07:14 15 °C 13 °C 1011.41 hPa SW 7 km/h 7 km/h 88% 0 mm 301 W/m2
07:19 15 °C 13 °C 1011.45 hPa SW 6 km/h 6 km/h 88% 0 mm 295 W/m2
Compliments of Weather Underground - 2 mb